Time;durP1;ratioP1;P1;durP2;ratioP2;P2;SDS_P1;SDS_P2;PMS_P1;PMS_P2;Temp;Humidity;BMP_temperature;BMP_pressure;BME280_temperature;BME280_humidity;BME280_pressure;Samples;Min_cycle;Max_cycle;Signal;HPM_P1;HPM_P2
2021/05/21 00:01:15;;;;;;;12.53;6.77;;;;;;;22.79;36.31;100492.13;5016566;28;20827;-49
2021/05/21 00:03:42;;;;;;;14.50;7.47;;;;;;;23.17;34.95;100492.47;5017929;28;20495;-50
2021/05/21 00:06:10;;;;;;;15.27;7.20;;;;;;;23.26;34.89;100486.19;5016598;28;20478;-47
2021/05/21 00:08:37;;;;;;;12.07;7.97;;;;;;;22.83;35.39;100482.44;5017570;28;20787;-52
2021/05/21 00:11:04;;;;;;;12.30;6.67;;;;;;;22.62;36.87;100478.34;5016250;28;20766;-53
2021/05/21 00:13:31;;;;;;;13.93;6.70;;;;;;;22.72;36.24;100469.41;5017292;28;20486;-49
2021/05/21 00:15:58;;;;;;;11.40;7.20;;;;;;;22.73;36.23;100458.03;5016345;28;20481;-49
2021/05/21 00:18:25;;;;;;;12.10;7.20;;;;;;;22.76;36.49;100463.22;5017501;28;20457;-44
2021/05/21 00:20:52;;;;;;;10.57;6.73;;;;;;;22.10;37.11;100455.25;5027957;28;20571;-51
2021/05/21 00:23:20;;;;;;;12.03;7.53;;;;;;;;;;5037160;28;20472;-51
2021/05/21 00:25:47;;;;;;;13.53;7.20;;;;;;;21.99;37.22;100449.22;5022314;28;20577;-52
2021/05/21 00:28:14;;;;;;;16.30;7.07;;;;;;;22.41;36.86;100434.75;5017287;28;20484;-49
2021/05/21 00:30:41;;;;;;;13.60;7.30;;;;;;;22.26;36.88;100442.81;5015299;28;20484;-51
2021/05/21 00:33:09;;;;;;;11.30;6.93;;;;;;;22.23;36.83;100436.72;5017176;28;20478;-49
2021/05/21 00:35:36;;;;;;;13.37;7.73;;;;;;;22.04;37.10;100439.56;5016262;28;20477;-50
2021/05/21 00:38:03;;;;;;;14.97;8.50;;;;;;;22.17;37.26;100428.91;5017249;28;20557;-49
2021/05/21 00:40:31;;;;;;;12.87;7.57;;;;;;;21.99;37.93;100429.09;5015629;28;20473;-47
2021/05/21 00:42:58;;;;;;;12.93;7.00;;;;;;;22.32;37.12;100417.34;5017112;28;20485;-51
2021/05/21 00:45:25;;;;;;;13.07;7.40;;;;;;;21.95;38.08;100416.88;5015248;28;20470;-48
2021/05/21 00:47:52;;;;;;;12.40;7.53;;;;;;;22.07;37.43;100409.75;5014529;28;20491;-47
2021/05/21 00:50:19;;;;;;;14.03;7.67;;;;;;;22.03;37.69;100406.31;5015891;28;20485;-51
2021/05/21 00:52:47;;;;;;;12.63;7.83;;;;;;;22.37;37.06;100407.66;5017007;28;20481;-50
2021/05/21 00:55:14;;;;;;;12.73;8.10;;;;;;;22.36;36.87;100400.66;5013361;28;20490;-48
2021/05/21 00:57:43;;;;;;;12.30;8.40;;;;;;;22.44;36.79;100388.28;5016924;28;20457;-50
2021/05/21 01:00:11;;;;;;;11.93;7.60;;;;;;;22.70;36.05;100386.22;5015408;28;20480;-47
2021/05/21 01:02:38;;;;;;;17.23;7.60;;;;;;;22.28;36.88;100382.38;5016793;28;20485;-47
2021/05/21 01:05:06;;;;;;;13.10;7.83;;;;;;;22.16;37.24;100367.63;5015888;28;20792;-48
2021/05/21 01:07:34;;;;;;;15.77;7.80;;;;;;;21.83;37.83;100369.75;5008373;28;20470;-51
2021/05/21 01:10:01;;;;;;;16.77;8.53;;;;;;;21.53;38.29;100372.66;4996466;28;20569;-50
2021/05/21 01:12:28;;;;;;;15.63;7.97;;;;;;;21.59;38.73;100366.50;4997402;28;20484;-50
2021/05/21 01:14:57;;;;;;;12.90;7.87;;;;;;;21.43;38.75;100361.38;4996519;28;20529;-51
2021/05/21 01:17:25;;;;;;;12.80;8.00;;;;;;;21.59;38.82;100361.25;4997464;28;20836;-50
2021/05/21 01:19:52;;;;;;;12.63;8.27;;;;;;;21.78;38.04;100356.69;4996367;28;20484;-49
2021/05/21 01:22:20;;;;;;;15.27;9.87;;;;;;;21.07;39.44;100350.34;5000011;28;20463;-48
2021/05/21 01:24:48;;;;;;;13.10;8.40;;;;;;;21.42;38.85;100337.78;5015882;28;20994;-51
2021/05/21 01:27:16;;;;;;;13.10;8.63;;;;;;;21.37;38.82;100335.22;5016967;28;20750;-45
2021/05/21 01:29:44;;;;;;;23.37;12.67;;;;;;;20.93;40.07;100323.38;5013013;28;20485;-48
2021/05/21 01:32:11;;;;;;;24.70;14.20;;;;;;;20.85;39.94;100320.78;4996868;28;20462;-46
2021/05/21 01:34:39;;;;;;;14.80;8.80;;;;;;;21.05;39.68;100315.41;4992753;28;20478;-51
2021/05/21 01:37:13;;;;;;;13.83;8.53;;;;;;;21.52;38.62;100312.31;4997097;28;20821;-52
2021/05/21 01:39:41;;;;;;;15.17;8.53;;;;;;;21.77;37.98;100298.94;4995743;28;20568;-49
2021/05/21 01:42:10;;;;;;;14.07;8.63;;;;;;;21.71;38.13;100297.28;4996748;28;20462;-51
2021/05/21 01:44:38;;;;;;;25.40;12.83;;;;;;;20.85;40.03;100289.34;4995830;28;20792;-52
2021/05/21 01:47:06;;;;;;;11.70;8.30;;;;;;;20.94;39.76;100296.25;4996969;28;20773;-51
2021/05/21 01:49:33;;;;;;;20.87;10.07;;;;;;;21.03;39.33;100286.56;5012756;28;20479;-49
2021/05/21 01:52:00;;;;;;;17.80;9.57;;;;;;;21.01;39.29;100282.22;5016286;28;20461;-47
2021/05/21 01:54:29;;;;;;;20.17;9.70;;;;;;;20.46;40.36;100281.75;5014897;28;20839;-50
2021/05/21 01:56:57;;;;;;;16.37;9.87;;;;;;;21.08;39.27;100265.56;5016359;28;20465;-47
2021/05/21 01:59:25;;;;;;;15.17;9.40;;;;;;;20.56;40.69;100270.31;5014912;28;20656;-46
2021/05/21 02:01:53;;;;;;;15.63;8.97;;;;;;;20.35;40.38;100261.72;5016012;28;20850;-50
2021/05/21 02:04:28;;;;;;;15.17;9.00;;;;;;;20.96;39.31;100260.44;5015032;28;20565;-47
2021/05/21 02:06:55;;;;;;;17.70;9.03;;;;;;;20.65;40.02;100253.66;5016189;28;20466;-49
2021/05/21 02:09:22;;;;;;;15.70;9.23;;;;;;;20.63;40.07;100248.41;5015025;28;20492;-51
2021/05/21 02:11:50;;;;;;;16.23;9.23;;;;;;;20.66;39.93;100244.06;5015682;28;20473;-47
2021/05/21 02:14:18;;;;;;;15.20;8.53;;;;;;;20.84;39.65;100237.78;5014594;28;20520;-48
2021/05/21 02:16:45;;;;;;;16.10;9.80;;;;;;;20.34;40.98;100238.16;5016000;28;20568;-49
2021/05/21 02:19:12;;;;;;;16.67;10.80;;;;;;;20.06;41.61;100231.34;5015143;28;20461;-49
2021/05/21 02:21:42;;;;;;;14.90;9.00;;;;;;;20.23;41.20;100225.13;5015571;28;20584;-49
2021/05/21 02:24:09;;;;;;;17.90;9.33;;;;;;;20.27;41.24;100218.13;5014544;28;20473;-47
2021/05/21 02:26:36;;;;;;;18.20;10.47;;;;;;;20.20;41.13;100212.09;5015513;28;20489;-51
2021/05/21 02:29:04;;;;;;;20.20;10.17;;;;;;;19.72;41.85;100209.69;5016160;28;20462;-48
2021/05/21 02:31:32;;;;;;;16.70;9.53;;;;;;;20.07;41.43;100206.94;5016790;28;20474;-48
2021/05/21 02:33:59;;;;;;;13.47;9.23;;;;;;;20.36;40.60;100205.84;5015764;28;20951;-48
2021/05/21 02:36:26;;;;;;;15.77;10.23;;;;;;;20.47;40.47;100197.88;5014540;28;20481;-50
2021/05/21 02:38:53;;;;;;;16.97;10.47;;;;;;;20.69;40.08;100196.84;5015668;28;20930;-49
2021/05/21 02:41:21;;;;;;;17.67;10.30;;;;;;;20.81;39.61;100188.00;5013789;28;20481;-48
2021/05/21 02:43:48;;;;;;;17.70;10.00;;;;;;;20.82;39.52;100180.09;5015215;28;20871;-50
2021/05/21 02:46:15;;;;;;;19.80;10.10;;;;;;;21.24;38.53;100181.47;5014313;28;20482;-47
2021/05/21 02:48:43;;;;;;;17.50;9.40;;;;;;;21.23;38.82;100177.09;5015364;28;20889;-47
2021/05/21 02:51:10;;;;;;;16.87;10.17;;;;;;;21.04;39.08;100167.66;5014117;28;20481;-47
2021/05/21 02:53:37;;;;;;;13.73;9.07;;;;;;;21.36;38.70;100165.56;5015147;28;20485;-48
2021/05/21 02:56:05;;;;;;;16.00;10.10;;;;;;;20.99;39.46;100158.13;5014077;28;20564;-49
2021/05/21 02:58:32;;;;;;;18.43;10.53;;;;;;;20.59;40.34;100155.00;5015042;28;20468;-49
2021/05/21 03:00:59;;;;;;;16.40;10.17;;;;;;;20.85;39.80;100159.16;5013666;28;20601;-46
2021/05/21 03:03:26;;;;;;;21.40;10.43;;;;;;;20.44;40.47;100149.88;5014754;28;21153;-49
2021/05/21 03:05:55;;;;;;;18.87;10.10;;;;;;;20.78;40.10;100147.81;5014271;28;20532;-48
2021/05/21 03:08:22;;;;;;;12.40;8.80;;;;;;;20.75;40.50;100152.22;5014167;28;20544;-49
2021/05/21 03:10:49;;;;;;;16.43;9.97;;;;;;;21.05;39.41;100139.72;5013367;28;20491;-51
2021/05/21 03:13:17;;;;;;;20.10;10.70;;;;;;;20.88;39.89;100132.88;5015184;28;20569;-47
2021/05/21 03:15:45;;;;;;;18.37;10.30;;;;;;;21.04;39.30;100132.72;5020396;28;20480;-50
2021/05/21 03:18:13;;;;;;;17.53;10.87;;;;;;;21.06;39.43;100128.34;5034622;28;20460;-50
2021/05/21 03:20:41;;;;;;;15.93;9.77;;;;;;;20.88;39.75;100122.41;5032863;28;20490;-47
2021/05/21 03:23:09;;;;;;;14.70;8.93;;;;;;;20.50;40.60;100119.28;5034459;28;20969;-46
2021/05/21 03:25:36;;;;;;;19.40;10.30;;;;;;;20.25;41.41;100116.00;5021111;28;20478;-50
2021/05/21 03:28:04;;;;;;;13.30;9.07;;;;;;;20.43;41.26;100114.09;5014862;28;20492;-53
2021/05/21 03:30:31;;;;;;;14.90;8.70;;;;;;;20.32;41.04;100112.47;5004067;28;20566;-50
2021/05/21 03:32:58;;;;;;;19.27;9.83;;;;;;;20.01;41.94;100107.47;4994999;28;20488;-49
2021/05/21 03:35:25;;;;;;;14.33;9.50;;;;;;;20.27;41.32;100103.78;4993488;28;20588;-53
2021/05/21 03:37:53;;;;;;;17.00;9.97;;;;;;;20.58;40.73;100098.25;4995071;28;20458;-51
2021/05/21 03:40:21;;;;;;;14.63;9.17;;;;;;;20.10;41.83;100090.84;4993715;28;20478;-48
2021/05/21 03:42:49;;;;;;;16.10;8.83;;;;;;;19.99;41.82;100088.28;4994998;28;20508;-48
2021/05/21 03:45:16;;;;;;;15.97;10.37;;;;;;;20.37;41.46;100081.00;4994025;28;20996;-47
2021/05/21 03:47:45;;;;;;;16.93;10.53;;;;;;;20.58;40.74;100077.28;4994873;28;20498;-48
2021/05/21 03:50:13;;;;;;;15.07;9.87;;;;;;;20.68;40.45;100072.81;4993565;28;20561;-49
2021/05/21 03:52:40;;;;;;;13.23;9.00;;;;;;;20.59;40.79;100073.78;4995350;28;20482;-48
2021/05/21 03:55:10;;;;;;;15.73;9.00;;;;;;;20.91;40.12;100069.94;5011498;28;20482;-47
2021/05/21 03:57:38;;;;;;;19.93;10.20;;;;;;;20.62;40.67;100063.25;5014827;28;20625;-48
2021/05/21 04:00:07;;;;;;;15.10;9.27;;;;;;;20.84;40.35;100055.19;5013575;28;20523;-51
2021/05/21 04:02:34;;;;;;;18.40;9.30;;;;;;;21.04;39.95;100054.91;5014099;28;20513;-54
2021/05/21 04:05:01;;;;;;;14.37;9.37;;;;;;;21.21;39.33;100045.97;5013580;28;20504;-52
2021/05/21 04:07:28;;;;;;;14.40;8.90;;;;;;;20.90;40.37;100052.50;5014769;28;20468;-48
2021/05/21 04:09:55;;;;;;;18.73;11.30;;;;;;;20.54;40.77;100038.91;5013333;28;20995;-52
2021/05/21 04:12:25;;;;;;;16.73;10.30;;;;;;;19.68;42.29;100041.38;5014503;28;20779;-48
2021/05/21 04:14:53;;;;;;;14.23;9.00;;;;;;;20.43;40.92;100031.16;5013253;28;20477;-51
2021/05/21 04:17:20;;;;;;;13.90;8.77;;;;;;;20.04;41.62;100023.66;5014457;28;20461;-48
2021/05/21 04:19:48;;;;;;;11.73;7.70;;;;;;;20.70;40.44;100022.97;5013293;28;20481;-49
2021/05/21 04:22:15;;;;;;;23.60;13.50;;;;;;;20.80;40.27;100019.38;5016610;28;20897;-45
2021/05/21 04:24:43;;;;;;;17.20;10.67;;;;;;;20.84;40.01;100018.50;5016705;28;20479;-49
2021/05/21 04:27:10;;;;;;;15.67;9.50;;;;;;;20.35;40.94;100019.88;5017730;28;20927;-46
2021/05/21 04:29:38;;;;;;;18.23;9.50;;;;;;;20.42;41.04;100015.44;5016464;28;20500;-50
2021/05/21 04:32:06;;;;;;;22.53;11.43;;;;;;;20.41;40.83;100011.09;5017627;28;20468;-47
2021/05/21 04:34:34;;;;;;;16.50;9.40;;;;;;;20.51;40.50;100010.97;5016649;28;20489;-49
2021/05/21 04:37:01;;;;;;;14.77;9.13;;;;;;;20.69;39.95;100005.53;5017535;28;20892;-50
2021/05/21 04:39:28;;;;;;;18.10;9.83;;;;;;;20.35;40.72;100001.53;5016553;28;20473;-49
2021/05/21 04:41:55;;;;;;;15.33;9.23;;;;;;;20.17;41.31;100002.59;5017091;28;20457;-47
2021/05/21 04:44:22;;;;;;;17.90;10.77;;;;;;;20.43;40.45;100001.47;5016398;28;20520;-50
2021/05/21 04:46:49;;;;;;;12.90;7.50;;;;;;;20.35;40.85;99994.56;5017440;28;20552;-50
2021/05/21 04:49:32;;;;;;;15.40;7.83;;;;;;;20.18;40.99;99992.13;5016606;28;20452;-48
2021/05/21 04:52:00;;;;;;;14.17;8.03;;;;;;;20.07;41.13;99994.84;5017245;28;20512;-53
2021/05/21 04:54:27;;;;;;;13.33;7.30;;;;;;;20.36;40.35;99993.66;5016004;28;21154;-51
2021/05/21 04:56:55;;;;;;;12.30;7.53;;;;;;;20.02;40.85;99983.56;5017363;28;20467;-52
2021/05/21 04:59:22;;;;;;;12.03;7.30;;;;;;;20.44;40.42;99979.63;5016034;28;20464;-47
2021/05/21 05:01:49;;;;;;;15.47;6.93;;;;;;;20.25;40.44;99982.44;5016773;28;20544;-51
2021/05/21 05:04:17;;;;;;;10.17;6.17;;;;;;;19.41;42.18;99977.91;5015814;28;20481;-50
2021/05/21 05:06:46;;;;;;;11.40;6.90;;;;;;;19.60;42.26;99969.94;5016755;28;20560;-48
2021/05/21 05:09:13;;;;;;;11.37;6.70;;;;;;;20.01;41.19;99966.13;5015718;28;20461;-47
2021/05/21 05:11:41;;;;;;;13.67;7.30;;;;;;;19.68;41.98;99965.50;5016381;28;20509;-49
2021/05/21 05:14:09;;;;;;;12.67;6.43;;;;;;;19.94;41.21;99957.41;5016049;28;20473;-50
2021/05/21 05:16:37;;;;;;;13.30;8.07;;;;;;;20.60;40.08;99960.22;5016995;28;20503;-48
2021/05/21 05:19:04;;;;;;;12.83;8.00;;;;;;;20.22;40.54;99954.56;5016675;28;20485;-51
2021/05/21 05:21:33;;;;;;;7.47;5.07;;;;;;;19.89;41.42;99953.97;5016395;28;20457;-49
2021/05/21 05:24:01;;;;;;;12.47;6.70;;;;;;;20.53;40.00;99947.22;5017548;28;20489;-49
2021/05/21 05:26:29;;;;;;;10.33;6.10;;;;;;;20.83;39.38;99940.72;5016515;28;20477;-50
2021/05/21 05:28:57;;;;;;;15.27;7.00;;;;;;;19.88;41.09;99946.16;5017131;28;20457;-48
2021/05/21 05:31:24;;;;;;;9.30;5.33;;;;;;;20.70;39.96;99944.38;5015055;28;20573;-46
2021/05/21 05:33:51;;;;;;;14.87;7.23;;;;;;;19.82;41.05;99936.59;5016667;28;20907;-46
2021/05/21 05:36:18;;;;;;;12.60;5.63;;;;;;;20.49;39.65;99926.31;5015300;28;20802;-48
2021/05/21 05:38:46;;;;;;;11.73;5.93;;;;;;;20.93;39.19;99930.13;5016779;28;20457;-50
2021/05/21 05:41:13;;;;;;;14.90;5.67;;;;;;;21.40;38.12;99919.78;5014255;28;20560;-49
2021/05/21 05:43:40;;;;;;;11.90;8.07;;;;;;;21.09;38.77;99917.66;5016607;28;20481;-47
2021/05/21 05:46:09;;;;;;;8.60;5.67;;;;;;;20.98;39.30;99918.66;5014079;28;20489;-52
2021/05/21 05:48:36;;;;;;;9.13;5.13;;;;;;;20.52;40.27;99907.06;5016360;28;20904;-50
2021/05/21 05:51:05;;;;;;;10.30;4.57;;;;;;;20.46;39.67;99915.00;5014951;28;20501;-49
2021/05/21 05:53:33;;;;;;;8.53;4.73;;;;;;;20.22;40.46;99903.94;5015855;28;20492;-45
2021/05/21 05:56:01;;;;;;;19.10;13.83;;;;;;;19.96;41.04;99907.72;5015379;28;20552;-48
2021/05/21 05:58:28;;;;;;;6.17;4.43;;;;;;;20.64;39.57;99903.41;5016206;28;20457;-50
2021/05/21 06:00:56;;;;;;;7.53;3.40;;;;;;;20.10;40.82;99900.56;5014847;28;20480;-50
2021/05/21 06:03:23;;;;;;;10.80;4.90;;;;;;;20.34;39.96;99901.16;5015909;28;20504;-49
2021/05/21 06:05:50;;;;;;;9.97;4.90;;;;;;;20.06;40.93;99896.22;5015052;28;20480;-50
2021/05/21 06:08:17;;;;;;;6.87;4.00;;;;;;;20.86;39.24;99909.25;5016408;28;20454;-51
2021/05/21 06:10:44;;;;;;;6.80;4.27;;;;;;;21.16;38.33;99893.06;5014780;28;20477;-47
2021/05/21 06:13:12;;;;;;;9.80;5.00;;;;;;;20.98;39.10;99891.59;5015978;28;20609;-50
2021/05/21 06:15:40;;;;;;;8.33;4.33;;;;;;;21.56;37.77;99886.28;5014876;28;20819;-49
2021/05/21 06:18:07;;;;;;;11.20;4.70;;;;;;;21.64;37.95;99881.75;5016160;28;20449;-49
2021/05/21 06:20:35;;;;;;;7.60;5.00;;;;;;;21.35;38.40;99879.66;5014489;28;20560;-49
2021/05/21 06:23:03;;;;;;;8.60;4.40;;;;;;;21.63;37.92;99879.19;5015540;28;20575;-51
2021/05/21 06:25:41;;;;;;;9.87;5.40;;;;;;;21.55;38.07;99874.06;5014751;28;20482;-49
2021/05/21 06:28:08;;;;;;;9.07;4.50;;;;;;;21.69;38.01;99872.06;5015503;28;20552;-47
2021/05/21 06:30:37;;;;;;;8.00;4.67;;;;;;;21.00;39.25;99868.84;5014098;28;20560;-50
2021/05/21 06:33:05;;;;;;;6.37;3.90;;;;;;;20.70;39.39;99871.00;5015425;28;20485;-53
2021/05/21 06:35:34;;;;;;;6.67;4.00;;;;;;;21.42;38.73;99868.16;5014242;28;20500;-51
2021/05/21 06:38:01;;;;;;;7.43;3.80;;;;;;;21.75;38.02;99870.25;5015535;28;20461;-50
2021/05/21 06:40:29;;;;;;;9.87;5.50;;;;;;;22.29;37.42;99873.56;5014363;28;20514;-47
2021/05/21 06:42:56;;;;;;;9.77;4.40;;;;;;;21.47;38.89;99874.19;5014751;28;20481;-49
2021/05/21 06:45:23;;;;;;;8.10;4.10;;;;;;;21.41;38.42;99869.06;5013716;28;20490;-51
2021/05/21 06:47:51;;;;;;;10.27;4.60;;;;;;;21.95;38.01;99862.84;5015396;28;20469;-50
2021/05/21 06:50:18;;;;;;;10.00;4.90;;;;;;;22.12;37.49;99859.03;5013829;28;20481;-53
2021/05/21 06:52:45;;;;;;;10.00;4.73;;;;;;;22.23;37.40;99854.41;5014963;28;20479;-47
2021/05/21 06:55:14;;;;;;;11.33;5.07;;;;;;;22.03;37.75;99852.19;5014053;28;20488;-51
2021/05/21 06:57:41;;;;;;;13.00;4.60;;;;;;;22.10;37.38;99855.56;5015239;28;20551;-47
2021/05/21 07:00:09;;;;;;;15.67;4.80;;;;;;;22.24;37.77;99855.25;5013512;28;20482;-47
2021/05/21 07:02:36;;;;;;;7.00;4.00;;;;;;;21.75;38.03;99852.75;5014949;28;20474;-47
2021/05/21 07:05:05;;;;;;;9.63;5.20;;;;;;;22.02;38.06;99841.72;5013568;28;20972;-49
2021/05/21 07:07:33;;;;;;;13.33;5.17;;;;;;;22.03;37.79;99835.56;5014992;28;20473;-51
2021/05/21 07:10:00;;;;;;;11.80;5.23;;;;;;;22.36;37.65;99843.66;5013528;28;20474;-47
2021/05/21 07:12:28;;;;;;;7.57;4.53;;;;;;;21.81;38.69;99836.00;5014342;28;20554;-55
2021/05/21 07:14:57;;;;;;;9.93;4.20;;;;;;;21.91;38.75;99834.94;5013670;28;20478;-51
2021/05/21 07:17:24;;;;;;;21.20;7.10;;;;;;;21.82;38.97;99829.84;5014536;28;20949;-51
2021/05/21 07:19:51;;;;;;;6.93;4.13;;;;;;;21.96;38.88;99830.44;5013840;28;20937;-48
2021/05/21 07:22:19;;;;;;;8.67;3.23;;;;;;;22.10;38.72;99824.06;5014229;28;20763;-47
2021/05/21 07:24:46;;;;;;;11.20;4.67;;;;;;;22.00;39.69;99826.00;5014102;28;20562;-52
2021/05/21 07:27:13;;;;;;;9.23;4.20;;;;;;;21.29;40.07;99838.66;5014866;28;20457;-50
2021/05/21 07:29:40;;;;;;;16.97;8.63;;;;;;;21.38;39.23;99828.00;5011028;28;20490;-54
2021/05/21 07:32:09;;;;;;;11.87;5.10;;;;;;;22.20;38.41;99816.84;5014739;28;20515;-52
2021/05/21 07:34:37;;;;;;;56.70;25.33;;;;;;;22.02;37.82;99815.44;5013626;28;20978;-51
2021/05/21 07:37:04;;;;;;;12.73;3.07;;;;;;;21.77;38.46;99813.31;5014778;28;20952;-52
2021/05/21 07:39:37;;;;;;;5.47;2.37;;;;;;;22.26;36.92;99806.19;5014178;28;20942;-49
2021/05/21 07:42:04;;;;;;;11.30;6.57;;;;;;;22.55;36.74;99809.09;5014831;28;20554;-48
2021/05/21 07:44:31;;;;;;;7.57;3.70;;;;;;;22.04;37.30;99806.66;5013594;28;20560;-52
2021/05/21 07:46:58;;;;;;;12.77;6.77;;;;;;;22.71;35.62;99797.31;5014741;28;20586;-52
2021/05/21 07:49:26;;;;;;;11.57;6.27;;;;;;;22.57;36.51;99794.16;5013569;28;20548;-52
2021/05/21 07:51:53;;;;;;;22.70;11.23;;;;;;;22.38;36.16;99795.41;5014024;28;20500;-51
2021/05/21 07:54:21;;;;;;;19.87;9.90;;;;;;;22.63;36.24;99794.00;5014155;28;20487;-54
2021/05/21 07:56:49;;;;;;;5.97;3.03;;;;;;;23.12;35.29;99781.41;5018603;28;20508;-45
2021/05/21 07:59:16;;;;;;;5.10;2.77;;;;;;;23.03;35.19;99779.88;5017593;28;20466;-50
2021/05/21 08:01:43;;;;;;;19.37;7.63;;;;;;;22.79;35.39;99771.72;5018046;28;20501;-46
2021/05/21 08:04:11;;;;;;;16.40;8.37;;;;;;;23.25;34.98;99771.44;5016291;28;20509;-55
2021/05/21 08:06:40;;;;;;;10.10;5.80;;;;;;;22.52;36.09;99778.50;5017899;28;20577;-50
2021/05/21 08:09:08;;;;;;;9.23;5.00;;;;;;;23.01;35.23;99771.16;5017284;28;20494;-51
2021/05/21 08:11:36;;;;;;;9.53;3.80;;;;;;;22.22;36.67;99773.88;5017430;28;20811;-49
2021/05/21 08:14:04;;;;;;;10.43;3.77;;;;;;;23.11;35.13;99771.78;5016372;28;20488;-52
2021/05/21 08:16:31;;;;;;;16.37;8.17;;;;;;;22.82;35.41;99775.16;5037376;28;20490;-52
2021/05/21 08:18:59;;;;;;;19.23;9.27;;;;;;;22.41;35.80;99769.97;5037969;28;20461;-50
2021/05/21 08:21:27;;;;;;;4.80;2.93;;;;;;;22.55;36.23;99774.94;5036236;28;20468;-51
2021/05/21 08:23:55;;;;;;;6.67;3.77;;;;;;;22.06;37.63;99790.88;5036958;28;20521;-49
2021/05/21 08:26:26;;;;;;;17.80;6.27;;;;;;;21.54;38.42;99840.84;5017206;28;20484;-47
2021/05/21 08:28:54;;;;;;;5.67;2.03;;;;;;;19.54;46.07;99864.47;5017721;28;20474;-46
2021/05/21 08:31:22;;;;;;;3.77;1.10;;;;;;;16.42;54.07;99900.00;5032592;28;20527;-45
2021/05/21 08:33:50;;;;;;;6.67;2.10;;;;;;;15.79;56.94;99902.25;5037547;28;20476;-49
2021/05/21 08:36:17;;;;;;;2.03;0.83;;;;;;;16.37;55.17;99904.34;5036153;28;20515;-46
2021/05/21 08:38:45;;;;;;;5.23;2.47;;;;;;;16.93;54.93;99909.72;5037894;28;20468;-48
2021/05/21 08:41:14;;;;;;;15.17;7.40;;;;;;;17.52;53.52;99894.16;5036507;28;20563;-44
2021/05/21 08:43:45;;;;;;;4.40;2.97;;;;;;;17.32;53.24;99881.97;5036978;28;20492;-49
2021/05/21 08:46:12;;;;;;;7.10;3.03;;;;;;;17.94;52.97;99881.91;5036319;28;20476;-48
2021/05/21 08:48:40;;;;;;;5.30;2.60;;;;;;;18.52;50.76;99857.34;5037327;28;20521;-43
2021/05/21 08:51:09;;;;;;;4.00;2.87;;;;;;;18.54;50.43;99855.59;5035739;28;20484;-45
2021/05/21 08:53:36;;;;;;;7.50;3.10;;;;;;;19.08;49.40;99846.56;5037241;28;20476;-42
2021/05/21 08:56:04;;;;;;;10.17;4.07;;;;;;;19.16;50.18;99844.75;5036239;28;20508;-44
2021/05/21 08:58:31;;;;;;;10.07;4.37;;;;;;;19.39;49.64;99835.84;5037548;28;20467;-46
2021/05/21 09:00:59;;;;;;;7.13;3.43;;;;;;;19.14;49.21;99836.06;5035779;28;20483;-49
2021/05/21 09:03:27;;;;;;;11.80;5.63;;;;;;;19.51;50.32;99833.13;5036962;28;20832;-46
2021/05/21 09:06:08;;;;;;;6.37;3.07;;;;;;;19.75;50.83;99838.09;5035628;28;20795;-47
2021/05/21 09:08:41;;;;;;;9.70;3.83;;;;;;;19.87;49.55;99837.09;5036214;28;20781;-45
2021/05/21 09:11:30;;;;;;;8.57;3.50;;;;;;;20.06;49.31;99836.03;5033565;28;20943;-47
2021/05/21 09:13:59;;;;;;;9.27;4.00;;;;;;;19.76;48.72;99824.13;5017176;28;20933;-44
2021/05/21 09:16:27;;;;;;;8.63;3.73;;;;;;;18.88;51.20;99831.88;5016115;28;20485;-49
2021/05/21 09:19:08;;;;;;;10.27;4.20;;;;;;;19.35;51.45;99828.91;5016866;28;20548;-48
2021/05/21 09:21:58;;;;;;;6.83;4.03;;;;;;;19.12;50.92;99835.22;5014167;28;20476;-47
2021/05/21 09:24:28;;;;;;;10.93;4.60;;;;;;;18.99;51.09;99822.22;5016358;28;20492;-47
2021/05/21 09:26:56;;;;;;;7.57;4.30;;;;;;;19.31;50.96;99828.06;5016882;28;20462;-50
2021/05/21 09:29:35;;;;;;;98.97;29.23;;;;;;;19.05;50.86;99818.72;5016047;28;20457;-48
2021/05/21 09:32:15;;;;;;;13.47;5.03;;;;;;;19.64;51.43;99814.69;4997310;28;20462;-46
2021/05/21 09:34:46;;;;;;;11.93;4.60;;;;;;;19.46;50.23;99806.13;4996252;28;20564;-47
2021/05/21 09:37:22;;;;;;;10.00;3.07;;;;;;;19.10;51.07;99813.44;4997063;28;20572;-45
2021/05/21 09:40:17;;;;;;;14.27;4.40;;;;;;;19.53;50.50;99812.19;4996302;28;20482;-47
2021/05/21 09:42:56;;;;;;;11.97;4.30;;;;;;;20.00;49.18;99812.53;4994304;28;20482;-47
2021/05/21 09:45:25;;;;;;;20.63;7.60;;;;;;;20.49;49.41;99802.28;4996079;28;20485;-48
2021/05/21 09:47:58;;;;;;;14.53;4.10;;;;;;;19.46;47.38;99792.19;5015318;28;20532;-51
2021/05/21 09:50:30;;;;;;;13.00;4.20;;;;;;;19.75;47.44;99781.41;5015143;28;20565;-51
2021/05/21 09:53:04;;;;;;;19.20;6.23;;;;;;;20.15;48.14;99787.06;5016600;28;20477;-44
2021/05/21 09:55:38;;;;;;;22.07;7.30;;;;;;;20.22;48.25;99775.63;5015482;28;20854;-51
2021/05/21 09:58:06;;;;;;;44.53;14.53;;;;;;;21.04;46.61;99761.25;5016066;28;21042;-50
2021/05/21 10:00:33;;;;;;;50.73;12.40;;;;;;;20.82;47.06;99765.97;5015121;28;20837;-45
2021/05/21 10:03:02;;;;;;;9.90;4.40;;;;;;;21.17;47.52;99759.31;5015813;28;20486;-49
2021/05/21 10:05:49;;;;;;;12.87;4.80;;;;;;;20.70;46.17;99758.31;5015477;28;20482;-41
2021/05/21 10:08:17;;;;;;;19.00;5.10;;;;;;;20.62;44.73;99748.81;5016116;28;20995;-48
2021/05/21 10:10:44;;;;;;;33.80;9.30;;;;;;;21.01;46.16;99740.34;5015098;28;20546;-50
2021/05/21 10:13:11;;;;;;;14.63;5.90;;;;;;;21.07;45.70;99743.75;5015759;28;20572;-50
2021/05/21 10:15:38;;;;;;;12.77;3.50;;;;;;;20.97;44.54;99733.44;5015128;28;20565;-52
2021/05/21 10:18:09;;;;;;;7.90;2.33;;;;;;;20.99;44.78;99736.03;5015613;28;20851;-48
2021/05/21 10:20:36;;;;;;;12.57;3.60;;;;;;;20.56;42.60;99742.84;5014747;28;20482;-47
2021/05/21 10:23:04;;;;;;;23.10;5.77;;;;;;;21.52;42.68;99748.16;5015465;28;20576;-53
2021/05/21 10:25:34;;;;;;;11.43;2.03;;;;;;;21.33;42.59;99743.25;5014341;28;20776;-51
2021/05/21 10:28:04;;;;;;;7.20;1.47;;;;;;;20.70;39.99;99750.44;5015835;28;20472;-46
2021/05/21 10:30:34;;;;;;;10.03;2.60;;;;;;;20.69;37.88;99761.81;5014163;28;20479;-49
2021/05/21 10:33:14;;;;;;;18.23;5.37;;;;;;;21.10;37.23;99749.81;5015827;28;20571;-46
2021/05/21 10:35:42;;;;;;;11.03;3.90;;;;;;;20.89;38.16;99751.94;5015034;28;20555;-48
2021/05/21 10:38:20;;;;;;;9.07;3.13;;;;;;;21.49;37.50;99750.84;5015373;28;20486;-47
2021/05/21 10:41:12;;;;;;;13.10;2.33;;;;;;;21.40;36.21;99747.53;5013988;28;20473;-53
2021/05/21 10:43:47;;;;;;;10.13;2.50;;;;;;;23.00;37.42;99745.78;5015930;28;20916;-49
2021/05/21 10:46:16;;;;;;;8.43;2.77;;;;;;;22.35;35.81;99748.19;5014022;28;20482;-47
2021/05/21 10:48:52;;;;;;;18.47;3.80;;;;;;;22.11;35.18;99750.47;5015426;28;20505;-49
2021/05/21 10:51:19;;;;;;;18.10;4.63;;;;;;;22.24;35.30;99744.94;5013992;28;20784;-51
2021/05/21 10:53:47;;;;;;;14.37;3.83;;;;;;;22.31;35.31;99745.66;5015390;28;21026;-55
2021/05/21 10:56:15;;;;;;;47.10;12.10;;;;;;;23.66;34.84;99720.34;5012607;28;20488;-52
2021/05/21 10:58:53;;;;;;;17.87;4.70;;;;;;;22.92;34.62;99724.94;5015568;28;20464;-53
2021/05/21 11:01:25;;;;;;;11.07;2.10;;;;;;;22.32;35.35;99721.13;5013486;28;20498;-48
2021/05/21 11:04:01;;;;;;;5.27;2.00;;;;;;;21.71;35.63;99720.72;5015061;28;20486;-52
2021/05/21 11:06:30;;;;;;;10.33;2.40;;;;;;;22.22;34.37;99730.97;5013457;28;20949;-49
2021/05/21 11:08:59;;;;;;;7.00;2.40;;;;;;;22.21;34.49;99730.09;5015193;28;20494;-50
2021/05/21 11:11:44;;;;;;;16.63;2.00;;;;;;;21.73;35.56;99740.81;5014116;28;20501;-48
2021/05/21 11:14:32;;;;;;;7.57;1.53;;;;;;;21.94;34.20;99739.50;5014472;28;20487;-48
2021/05/21 11:17:06;;;;;;;5.73;1.33;;;;;;;21.64;33.31;99742.66;5015199;28;20486;-48
2021/05/21 11:19:34;;;;;;;26.37;6.77;;;;;;;22.76;32.41;99734.97;4994863;28;20484;-49
2021/05/21 11:22:06;;;;;;;12.10;3.10;;;;;;;22.24;33.22;99737.94;4995313;28;20473;-54
2021/05/21 11:24:38;;;;;;;12.20;3.10;;;;;;;22.60;32.46;99728.41;4995142;28;20471;-56
2021/05/21 11:27:12;;;;;;;10.83;2.10;;;;;;;22.88;32.66;99731.19;4995557;28;20463;-46
2021/05/21 11:29:46;;;;;;;19.20;4.63;;;;;;;22.59;34.25;99726.63;5010663;28;20579;-53
2021/05/21 11:32:14;;;;;;;13.70;4.87;;;;;;;22.82;33.79;99719.97;5017384;28;20933;-53